Galeon Andalucia — EAIZ — position and weather

sailwx.info

Track history (hours):
 
Tides and Currents Weather Stations Pressure Air Temp Water Temp Dewpoint Dewpoint Depression Visibility Wind Speed Wind Dir Waves Ship Positions

Galeon Andalucia

Last reported at 2018-Nov-02 08:40 UTC. Time now 2018-Dec-10 23:47 UTC.
Position N 41°23' E 002°11'.
Warning: this ship's position is 38 days out of date.

Length 47 m; draft 3.2 m.

Type: Ship. MMSI: 225356000.

Date/timePositionNaut miles runAvg speedWind from/ knotsBaromVisibWave heightAir tempDewpointWater temp
2018-Nov-02 08:40N 41°23' E 002°11'0 0.8
2018-Nov-02 08:25N 41°23' E 002°11'1 1.7
2018-Nov-02 08:03N 41°22' E 002°11'0 3.8
2018-Nov-02 07:58N 41°22' E 002°11'2 4.3
2018-Nov-02 07:30N 41°20' E 002°13'2 4.5
2018-Nov-02 07:03N 41°18' E 002°13'0 7.2
2018-Nov-02 07:00N 41°18' E 002°12'3 6.8
2018-Nov-02 06:30N 41°15' E 002°09'2 5.3
2018-Nov-02 06:03N 41°14' E 002°07'0 4.8
2018-Nov-02 06:00N 41°14' E 002°06'2 4.6
2018-Nov-02 05:30N 41°13' E 002°04'2 4.7
2018-Nov-02 05:03N 41°12' E 002°01'0 4.8
2018-Nov-02 05:00N 41°12' E 002°01'3 5.2
2018-Nov-02 04:30N 41°10' E 001°58'2 5.5
2018-Nov-02 04:03N 41°08' E 001°56'0 5.6
2018-Nov-02 03:59N 41°08' E 001°55'3 5.8
2018-Nov-02 03:30N 41°07' E 001°52'3 5.9
2018-Nov-02 03:03N 41°05' E 001°50'0 5.9
2018-Nov-02 03:00N 41°05' E 001°49'3 5.8
2018-Nov-02 02:30N 41°03' E 001°46'3 5.9
2018-Nov-02 02:03N 41°02' E 001°43'0 6.1
2018-Nov-02 02:00N 41°01' E 001°43'3 6.0
2018-Nov-02 01:26N 40°59' E 001°39'125 6.9
2018-Nov-01 07:20N 39°31' W 000°16'2 8.7
2018-Nov-01 07:03N 39°29' W 000°18'0 8.2
2018-Nov-01 07:00N 39°28' W 000°18'1 2.0
2018-Nov-01 06:23N 39°28' W 000°19'  
2018-Oct-24 10:24N 39°28' W 000°19'1 2.1
2018-Oct-24 10:03N 39°28' W 000°19'0 3.9
2018-Oct-24 10:00N 39°28' W 000°19'2 3.8
2018-Oct-24 09:30N 39°27' W 000°16'100 5.8
2018-Oct-23 16:16N 37°48' W 000°31'1 7.0
2018-Oct-23 16:03N 37°47' W 000°32'0 7.2
2018-Oct-23 16:00N 37°46' W 000°32'3 6.9
2018-Oct-23 15:30N 37°43' W 000°34'3 6.7
2018-Oct-23 15:03N 37°40' W 000°35'0 6.6
2018-Oct-23 15:00N 37°40' W 000°35'3 6.4
2018-Oct-23 14:30N 37°37' W 000°37'6 6.1
2018-Oct-23 13:29N 37°34' W 000°44'3 6.5
2018-Oct-23 13:03N 37°33' W 000°47'0 6.7
2018-Oct-23 13:00N 37°32' W 000°47'3 6.8
2018-Oct-23 12:30N 37°31' W 000°51'3 6.8
2018-Oct-23 12:00N 37°30' W 000°56'5 7.2
2018-Oct-23 11:17N 37°29' W 001°02'  
Track history (hours):
 
Tides and Currents Weather Stations Pressure Air Temp Water Temp Dewpoint Dewpoint Depression Visibility Wind Speed Wind Dir Waves Ship Positions

Galeon Andalucia

Last reported at 2018-Nov-02 08:40 UTC. Time now 2018-Dec-10 23:47 UTC.
Position N 41°23' E 002°11'.
Warning: this ship's position is 38 days out of date.

Length 47 m; draft 3.2 m.

Type: Ship. MMSI: 225356000.

Date/timePositionNaut miles runAvg speedWind from/ knotsBaromVisibWave heightAir tempDewpointWater temp
2018-Nov-02 08:40N 41°23' E 002°11'0 0.8
2018-Nov-02 08:25N 41°23' E 002°11'1 1.7
2018-Nov-02 08:03N 41°22' E 002°11'0 3.8
2018-Nov-02 07:58N 41°22' E 002°11'2 4.3
2018-Nov-02 07:30N 41°20' E 002°13'2 4.5
2018-Nov-02 07:03N 41°18' E 002°13'0 7.2
2018-Nov-02 07:00N 41°18' E 002°12'3 6.8
2018-Nov-02 06:30N 41°15' E 002°09'2 5.3
2018-Nov-02 06:03N 41°14' E 002°07'0 4.8
2018-Nov-02 06:00N 41°14' E 002°06'2 4.6
2018-Nov-02 05:30N 41°13' E 002°04'2 4.7
2018-Nov-02 05:03N 41°12' E 002°01'0 4.8
2018-Nov-02 05:00N 41°12' E 002°01'3 5.2
2018-Nov-02 04:30N 41°10' E 001°58'2 5.5
2018-Nov-02 04:03N 41°08' E 001°56'0 5.6
2018-Nov-02 03:59N 41°08' E 001°55'3 5.8
2018-Nov-02 03:30N 41°07' E 001°52'3 5.9
2018-Nov-02 03:03N 41°05' E 001°50'0 5.9
2018-Nov-02 03:00N 41°05' E 001°49'3 5.8
2018-Nov-02 02:30N 41°03' E 001°46'3 5.9
2018-Nov-02 02:03N 41°02' E 001°43'0 6.1
2018-Nov-02 02:00N 41°01' E 001°43'3 6.0
2018-Nov-02 01:26N 40°59' E 001°39'125 6.9
2018-Nov-01 07:20N 39°31' W 000°16'2 8.7
2018-Nov-01 07:03N 39°29' W 000°18'0 8.2
2018-Nov-01 07:00N 39°28' W 000°18'1 2.0
2018-Nov-01 06:23N 39°28' W 000°19'  
2018-Oct-24 10:24N 39°28' W 000°19'1 2.1
2018-Oct-24 10:03N 39°28' W 000°19'0 3.9
2018-Oct-24 10:00N 39°28' W 000°19'2 3.8
2018-Oct-24 09:30N 39°27' W 000°16'100 5.8
2018-Oct-23 16:16N 37°48' W 000°31'1 7.0
2018-Oct-23 16:03N 37°47' W 000°32'0 7.2
2018-Oct-23 16:00N 37°46' W 000°32'3 6.9
2018-Oct-23 15:30N 37°43' W 000°34'3 6.7
2018-Oct-23 15:03N 37°40' W 000°35'0 6.6
2018-Oct-23 15:00N 37°40' W 000°35'3 6.4
2018-Oct-23 14:30N 37°37' W 000°37'6 6.1
2018-Oct-23 13:29N 37°34' W 000°44'3 6.5
2018-Oct-23 13:03N 37°33' W 000°47'0 6.7
2018-Oct-23 13:00N 37°32' W 000°47'3 6.8
2018-Oct-23 12:30N 37°31' W 000°51'3 6.8
2018-Oct-23 12:00N 37°30' W 000°56'5 7.2
2018-Oct-23 11:17N 37°29' W 001°02'  

Dump ship's entire track history